Time;durP1;ratioP1;P1;durP2;ratioP2;P2;SDS_P1;SDS_P2;PMS_P1;PMS_P2;Temp;Humidity;BMP_temperature;BMP_pressure;BME280_temperature;BME280_humidity;BME280_pressure;Samples;Min_cycle;Max_cycle;Signal;HPM_P1;HPM_P2
2023/10/28 00:00:08;;;;;;;127.90;46.50;;;;;;;8.69;100.00;98732.50;105502;1257;69128;-62
2023/10/28 00:02:56;;;;;;;131.80;48.00;;;;;;;8.70;100.00;98731.07;105531;1256;75788;-62
2023/10/28 00:05:24;;;;;;;84.10;31.50;;;;;;;8.70;100.00;98731.95;105666;1256;82715;-62
2023/10/28 00:07:53;;;;;;;62.80;26.60;;;;;;;8.70;100.00;98731.24;105552;1255;72650;-62
2023/10/28 00:10:21;;;;;;;28.20;16.10;;;;;;;8.72;100.00;98733.60;105543;1256;69153;-62
2023/10/28 00:12:50;;;;;;;24.40;15.40;;;;;;;8.72;100.00;98739.14;105610;1256;69161;-62
2023/10/28 00:15:18;;;;;;;63.00;25.30;;;;;;;8.72;100.00;98741.44;105584;1256;73005;-62
2023/10/28 00:17:47;;;;;;;94.00;32.10;;;;;;;8.73;100.00;98744.70;105557;1252;81121;-62
2023/10/28 00:20:19;;;;;;;94.60;29.30;;;;;;;8.73;100.00;98745.92;105561;1255;72894;-62
2023/10/28 00:22:49;;;;;;;106.50;33.50;;;;;;;8.74;100.00;98745.34;105604;1256;69158;-62
2023/10/28 00:25:17;;;;;;;67.00;23.50;;;;;;;8.74;100.00;98746.72;105551;1255;69066;-62
2023/10/28 00:27:45;;;;;;;131.20;36.70;;;;;;;8.74;100.00;98739.92;105505;1253;72809;-62
2023/10/28 00:30:14;;;;;;;84.10;25.90;;;;;;;8.74;100.00;98741.52;105636;1257;81468;-62
2023/10/28 00:32:42;;;;;;;24.80;14.10;;;;;;;8.74;100.00;98737.52;105485;1257;70879;-62
2023/10/28 00:35:13;;;;;;;22.80;14.10;;;;;;;8.76;100.00;98733.40;105597;1256;69215;-62
2023/10/28 00:37:42;;;;;;;20.20;13.00;;;;;;;8.76;100.00;98731.65;105626;1253;69183;-62
2023/10/28 00:40:11;;;;;;;21.40;12.70;;;;;;;8.76;100.00;98730.23;105605;1253;73233;-62
2023/10/28 00:42:41;;;;;;;21.40;13.10;;;;;;;8.76;100.00;98725.53;105613;1254;82095;-62
2023/10/28 00:45:11;;;;;;;19.60;12.80;;;;;;;8.77;100.00;98728.63;105590;1254;70119;-62
2023/10/28 00:47:44;;;;;;;90.80;27.60;;;;;;;8.78;100.00;98730.14;105393;1257;69214;-62
2023/10/28 00:50:16;;;;;;;86.40;26.50;;;;;;;8.78;100.00;98730.30;105575;1255;69190;-62
2023/10/28 00:52:47;;;;;;;99.70;30.90;;;;;;;8.78;100.00;98736.95;105517;1252;74115;-62
2023/10/28 00:55:16;;;;;;;54.40;20.00;;;;;;;8.77;100.00;98739.61;105456;1257;81496;-62
2023/10/28 00:57:45;;;;;;;29.30;15.70;;;;;;;8.78;100.00;98737.27;105470;1253;71502;-62
2023/10/28 01:00:23;;;;;;;23.30;13.90;;;;;;;8.80;100.00;98738.52;105367;1257;69218;-62
2023/10/28 01:02:52;;;;;;;21.20;12.90;;;;;;;8.82;100.00;98741.21;105633;1253;69165;-62
2023/10/28 01:05:22;;;;;;;;;;;;;;;8.83;100.00;98738.52;105495;1257;73270;-62
2023/10/28 01:07:50;;;;;;;28.50;14.70;;;;;;;8.83;100.00;98730.33;105390;1254;81429;-62
2023/10/28 01:10:30;;;;;;;60.80;22.50;;;;;;;8.83;100.00;98730.86;105538;1256;71762;-62
2023/10/28 01:12:59;;;;;;;54.90;20.30;;;;;;;8.84;100.00;98731.19;105555;1257;69167;-62
2023/10/28 01:15:28;;;;;;;31.20;15.90;;;;;;;8.84;100.00;98730.12;105629;1254;69117;-62
2023/10/28 01:17:59;;;;;;;24.60;14.50;;;;;;;8.85;100.00;98731.45;105437;1253;72918;-62
2023/10/28 01:20:27;;;;;;;34.30;15.60;;;;;;;8.85;100.00;98733.73;105548;1255;81384;-62
2023/10/28 01:22:55;;;;;;;38.70;16.30;;;;;;;8.84;100.00;98735.00;105538;1254;70499;-62
2023/10/28 01:25:24;;;;;;;31.30;15.80;;;;;;;8.85;100.00;98736.55;105516;1256;69112;-62
2023/10/28 01:27:53;;;;;;;30.20;14.70;;;;;;;8.85;100.00;98737.23;105640;1256;69196;-62
2023/10/28 01:30:21;;;;;;;23.50;12.70;;;;;;;8.84;100.00;98733.79;105553;1256;72498;-62
2023/10/28 01:32:50;;;;;;;20.30;11.30;;;;;;;8.83;100.00;98737.64;105639;1254;81450;-62
2023/10/28 01:35:18;;;;;;;17.70;11.80;;;;;;;8.83;100.00;98735.97;105575;1253;72701;-62
2023/10/28 01:37:47;;;;;;;17.80;11.40;;;;;;;8.82;100.00;98737.75;105603;1253;69189;-62
2023/10/28 01:40:17;;;;;;;19.50;12.00;;;;;;;8.82;100.00;98745.02;105552;1252;69208;-62
2023/10/28 01:42:45;;;;;;;29.20;14.80;;;;;;;8.85;100.00;98743.13;105638;1255;73012;-62
2023/10/28 01:45:18;;;;;;;26.80;14.30;;;;;;;8.86;100.00;98747.08;105611;1252;81505;-62
2023/10/28 01:47:46;;;;;;;36.80;17.50;;;;;;;8.86;100.00;98748.14;105535;1255;71752;-65
2023/10/28 01:50:16;;;;;;;32.50;16.60;;;;;;;8.87;100.00;98751.39;105527;1253;69205;-65
2023/10/28 01:52:45;;;;;;;;;;;;;;;8.87;100.00;98755.41;105561;1254;69085;-64
2023/10/28 01:55:14;;;;;;;25.10;13.80;;;;;;;8.85;100.00;98752.52;105578;1254;72775;-63
2023/10/28 01:57:43;;;;;;;22.70;14.30;;;;;;;8.85;100.00;98756.04;105564;1253;82791;-63
2023/10/28 02:00:16;;;;;;;20.60;12.60;;;;;;;8.85;100.00;98760.39;105561;1253;71717;-63
2023/10/28 02:02:45;;;;;;;21.20;13.30;;;;;;;8.85;100.00;98761.04;105552;1253;69155;-63
2023/10/28 02:05:15;;;;;;;19.50;12.10;;;;;;;8.85;100.00;98763.36;105578;1254;69059;-63
2023/10/28 02:07:44;;;;;;;17.70;11.80;;;;;;;8.85;100.00;98771.02;105582;1256;73779;-63
2023/10/28 02:10:12;;;;;;;18.50;12.60;;;;;;;8.84;100.00;98771.94;105617;1253;81502;-62
2023/10/28 02:12:41;;;;;;;20.00;12.70;;;;;;;8.83;100.00;98775.61;105522;1254;73061;-62
2023/10/28 02:15:09;;;;;;;21.90;12.40;;;;;;;8.84;100.00;98775.05;105604;1253;69090;-63
2023/10/28 02:17:38;;;;;;;25.80;15.00;;;;;;;8.84;100.00;98776.98;105485;1255;69199;-63
2023/10/28 02:20:09;;;;;;;26.00;14.80;;;;;;;8.82;100.00;98777.13;105480;1253;73939;-63
2023/10/28 02:22:38;;;;;;;26.10;14.30;;;;;;;8.81;100.00;98777.33;105444;1253;81819;-63
2023/10/28 02:25:08;;;;;;;21.10;12.90;;;;;;;8.82;100.00;98779.17;105447;1257;71769;-63
2023/10/28 02:27:37;;;;;;;;;;;;;;;8.83;100.00;98778.27;105599;1254;69075;-62
2023/10/28 02:30:07;;;;;;;20.70;13.80;;;;;;;8.83;100.00;98775.48;105575;1256;69138;-62
2023/10/28 02:32:36;;;;;;;19.90;12.10;;;;;;;8.83;100.00;98778.11;105566;1252;72783;-62
2023/10/28 02:35:05;;;;;;;18.80;12.40;;;;;;;8.84;100.00;98777.86;105626;1256;81778;-62
2023/10/28 02:37:33;;;;;;;17.80;11.70;;;;;;;8.85;100.00;98774.85;105583;1255;71383;-63
2023/10/28 02:40:03;;;;;;;14.70;11.10;;;;;;;8.86;100.00;98776.20;105547;1256;69084;-62
2023/10/28 02:42:32;;;;;;;21.70;12.30;;;;;;;8.86;100.00;98780.16;105563;1254;69061;-62
2023/10/28 02:45:00;;;;;;;19.00;12.00;;;;;;;8.88;100.00;98787.18;105552;1254;71610;-62
2023/10/28 02:47:31;;;;;;;19.00;11.60;;;;;;;8.87;100.00;98789.33;105557;1255;81552;-63
2023/10/28 02:50:00;;;;;;;18.10;12.40;;;;;;;8.88;100.00;98788.95;105551;1254;73239;-63
2023/10/28 02:52:28;;;;;;;17.10;11.60;;;;;;;8.88;100.00;98790.17;105592;1255;69109;-62
2023/10/28 02:54:56;;;;;;;15.70;11.10;;;;;;;8.87;100.00;98791.59;105506;1256;69187;-62
2023/10/28 02:57:24;;;;;;;15.40;11.00;;;;;;;8.86;100.00;98786.96;105570;1253;74175;-62
2023/10/28 02:59:53;;;;;;;16.90;12.30;;;;;;;8.84;100.00;98789.70;105633;1252;81636;-62
2023/10/28 03:02:21;;;;;;;17.30;11.70;;;;;;;8.84;100.00;98791.80;105584;1256;72840;-62
2023/10/28 03:04:49;;;;;;;14.00;10.80;;;;;;;8.83;100.00;98790.98;105507;1253;69115;-62
2023/10/28 03:07:19;;;;;;;14.60;10.90;;;;;;;8.84;100.00;98792.85;105604;1255;69163;-62
2023/10/28 03:09:47;;;;;;;15.70;10.20;;;;;;;8.85;100.00;98788.27;105540;1255;74146;-63
2023/10/28 03:12:15;;;;;;;12.30;9.40;;;;;;;8.86;100.00;98787.50;105568;1255;81798;-63
2023/10/28 03:14:43;;;;;;;15.10;10.30;;;;;;;8.87;100.00;98788.48;105556;1255;72995;-63
2023/10/28 03:17:11;;;;;;;13.00;9.70;;;;;;;8.89;100.00;98785.79;105529;1253;69113;-63
2023/10/28 03:19:40;;;;;;;14.60;9.40;;;;;;;8.89;100.00;98785.23;105571;1255;69161;-64
2023/10/28 03:22:09;;;;;;;14.20;9.00;;;;;;;8.90;100.00;98781.19;105576;1255;73317;-63
2023/10/28 03:24:37;;;;;;;12.90;9.00;;;;;;;8.92;100.00;98783.52;105428;1251;81855;-63
2023/10/28 03:27:05;;;;;;;11.50;8.20;;;;;;;8.92;100.00;98783.30;105519;1254;70164;-63
2023/10/28 03:29:34;;;;;;;10.70;8.00;;;;;;;8.92;100.00;98780.89;105543;1253;69174;-63
2023/10/28 03:32:02;;;;;;;10.10;7.20;;;;;;;8.93;100.00;98776.32;105437;1257;69190;-63
2023/10/28 03:34:30;;;;;;;10.60;7.30;;;;;;;8.93;100.00;98778.17;105572;1253;74216;-63
2023/10/28 03:36:59;;;;;;;9.70;7.50;;;;;;;8.96;100.00;98779.65;105551;1255;81423;-63
2023/10/28 03:39:29;;;;;;;12.30;7.40;;;;;;;8.97;100.00;98781.66;105512;1253;72853;-63
2023/10/28 03:41:57;;;;;;;10.20;7.60;;;;;;;8.98;100.00;98779.17;105612;1255;69159;-63
2023/10/28 03:44:26;;;;;;;10.80;7.50;;;;;;;8.98;100.00;98781.06;105514;1255;69181;-63
2023/10/28 03:46:54;;;;;;;11.30;7.90;;;;;;;8.99;100.00;98780.16;105602;1255;74174;-63
2023/10/28 03:49:22;;;;;;;9.70;7.30;;;;;;;8.99;100.00;98776.52;105538;1252;81472;-63
2023/10/28 03:51:50;;;;;;;10.80;8.00;;;;;;;8.99;100.00;98778.73;105530;1253;72334;-64
2023/10/28 03:54:18;;;;;;;11.50;8.00;;;;;;;9.01;100.00;98775.01;105545;1254;69466;-64
2023/10/28 03:56:47;;;;;;;11.30;7.40;;;;;;;9.02;100.00;98775.83;105534;1252;69205;-65
2023/10/28 03:59:15;;;;;;;9.80;7.90;;;;;;;9.01;100.00;98776.04;105612;1253;74212;-65
2023/10/28 04:01:44;;;;;;;10.90;7.80;;;;;;;8.99;100.00;98771.42;105642;1255;81362;-65
2023/10/28 04:04:12;;;;;;;12.30;7.40;;;;;;;9.00;100.00;98771.92;105566;1255;71680;-65
2023/10/28 04:06:40;;;;;;;10.10;7.40;;;;;;;8.99;100.00;98772.64;105565;1252;69137;-65
2023/10/28 04:09:08;;;;;;;11.20;7.90;;;;;;;8.99;100.00;98775.61;105573;1253;69128;-65
2023/10/28 04:11:37;;;;;;;8.60;7.00;;;;;;;8.99;100.00;98777.70;105619;1252;71828;-65
2023/10/28 04:14:05;;;;;;;8.80;6.70;;;;;;;9.00;100.00;98777.31;105593;1255;81540;-64
2023/10/28 04:16:33;;;;;;;10.50;6.90;;;;;;;9.01;100.00;98779.04;105528;1253;73084;-64
2023/10/28 04:19:02;;;;;;;9.70;7.00;;;;;;;9.01;100.00;98774.83;105542;1255;69151;-64
2023/10/28 04:21:30;;;;;;;9.90;7.00;;;;;;;9.02;100.00;98779.80;105628;1253;69112;-64
2023/10/28 04:23:59;;;;;;;9.40;6.80;;;;;;;9.04;100.00;98781.63;105635;1255;73886;-64
2023/10/28 04:26:27;;;;;;;8.20;5.80;;;;;;;9.04;100.00;98783.20;105556;1255;81930;-64
2023/10/28 04:28:59;;;;;;;7.80;5.40;;;;;;;9.04;100.00;98782.64;105630;1253;70761;-64
2023/10/28 04:31:28;;;;;;;8.40;5.10;;;;;;;9.05;100.00;98781.21;105557;1255;69200;-64
2023/10/28 04:33:56;;;;;;;5.00;4.30;;;;;;;9.06;100.00;98779.23;105566;1255;69186;-64
2023/10/28 04:36:25;;;;;;;4.60;3.50;;;;;;;9.08;100.00;98780.02;105526;1255;71510;-64
2023/10/28 04:38:53;;;;;;;3.40;2.70;;;;;;;9.10;100.00;98778.10;105605;1255;80758;-64
2023/10/28 04:41:21;;;;;;;4.00;2.40;;;;;;;9.14;100.00;98782.74;105555;1253;72217;-64
2023/10/28 04:43:49;;;;;;;3.70;2.60;;;;;;;9.17;100.00;98785.21;105583;1253;69181;-63
2023/10/28 04:46:17;;;;;;;2.90;2.30;;;;;;;9.20;100.00;98784.38;105502;1255;69169;-64
2023/10/28 04:48:46;;;;;;;5.30;2.50;;;;;;;9.22;100.00;98782.86;105556;1252;72970;-65
2023/10/28 04:51:15;;;;;;;3.20;1.90;;;;;;;9.24;100.00;98785.73;105588;1252;81641;-65
2023/10/28 04:53:45;;;;;;;4.40;1.90;;;;;;;9.25;100.00;98786.66;105611;1256;73011;-64
2023/10/28 04:56:13;;;;;;;3.00;1.90;;;;;;;9.26;100.00;98791.19;105548;1255;70388;-64
2023/10/28 04:58:41;;;;;;;3.30;1.90;;;;;;;9.27;100.00;98793.20;105542;1252;69110;-64
2023/10/28 05:01:09;;;;;;;2.40;1.60;;;;;;;9.28;100.00;98799.74;105531;1253;72991;-64
2023/10/28 05:03:38;;;;;;;3.80;1.70;;;;;;;9.29;100.00;98804.74;105531;1255;82774;-63
2023/10/28 05:06:09;;;;;;;4.40;1.90;;;;;;;9.29;100.00;98809.47;105519;1255;72378;-63
2023/10/28 05:08:38;;;;;;;4.10;2.00;;;;;;;9.29;100.00;98807.20;105569;1253;69169;-64
2023/10/28 05:11:08;;;;;;;6.20;1.80;;;;;;;9.29;100.00;98808.44;105586;1255;69554;-63
2023/10/28 05:13:36;;;;;;;3.90;1.80;;;;;;;9.29;100.00;98816.42;105573;1253;73119;-63
2023/10/28 05:16:05;;;;;;;6.60;2.00;;;;;;;9.30;100.00;98813.23;105536;1252;81646;-64
2023/10/28 05:18:33;;;;;;;3.90;2.10;;;;;;;9.30;100.00;98821.46;105572;1253;72145;-65
2023/10/28 05:21:01;;;;;;;4.00;2.20;;;;;;;9.29;100.00;98819.55;105516;1253;69097;-65
2023/10/28 05:23:30;;;;;;;4.60;2.60;;;;;;;9.29;100.00;98823.42;105588;1252;69081;-65
2023/10/28 05:25:58;;;;;;;49.40;17.80;;;;;;;9.29;100.00;98826.70;105634;1253;73969;-65
2023/10/28 05:28:26;;;;;;;34.40;13.80;;;;;;;9.28;100.00;98832.70;105496;1253;81434;-65
2023/10/28 05:30:54;;;;;;;15.60;6.70;;;;;;;9.28;100.00;98835.81;105496;1253;71506;-65
2023/10/28 05:33:22;;;;;;;7.50;3.70;;;;;;;9.29;100.00;98840.70;105586;1253;69074;-65
2023/10/28 05:35:51;;;;;;;5.10;3.10;;;;;;;9.29;100.00;98841.22;105545;1253;69180;-65
2023/10/28 05:38:20;;;;;;;6.20;3.10;;;;;;;9.28;100.00;98842.25;105610;1254;73977;-64
2023/10/28 05:40:49;;;;;;;8.60;3.60;;;;;;;9.29;100.00;98845.39;105606;1255;82417;-65
2023/10/28 05:43:18;;;;;;;5.60;3.00;;;;;;;9.29;100.00;98847.14;105610;1254;72263;-66
2023/10/28 05:45:46;;;;;;;6.60;2.70;;;;;;;9.28;100.00;98854.66;105579;1255;69172;-65
2023/10/28 05:48:17;;;;;;;3.70;3.20;;;;;;;9.27;100.00;98856.46;105530;1255;69142;-65
2023/10/28 05:50:46;;;;;;;6.60;3.50;;;;;;;9.26;100.00;98861.77;105597;1255;72966;-65
2023/10/28 05:53:16;;;;;;;4.40;3.20;;;;;;;9.25;100.00;98864.94;105667;1255;81450;-64
2023/10/28 05:55:44;;;;;;;10.50;3.10;;;;;;;9.25;100.00;98865.30;105557;1254;73172;-65
2023/10/28 05:58:13;;;;;;;3.80;3.00;;;;;;;9.24;100.00;98873.19;105575;1255;69172;-65
2023/10/28 06:00:44;;;;;;;5.90;3.20;;;;;;;9.25;100.00;98875.05;105492;1253;69193;-66
2023/10/28 06:03:12;;;;;;;4.60;3.10;;;;;;;9.25;100.00;98881.70;105493;1254;73256;-67
2023/10/28 06:05:41;;;;;;;5.20;3.20;;;;;;;9.25;100.00;98878.52;105544;1253;81922;-65
2023/10/28 06:08:11;;;;;;;7.00;3.90;;;;;;;9.25;100.00;98881.34;105464;1255;72110;-65
2023/10/28 06:10:39;;;;;;;4.30;3.20;;;;;;;9.25;100.00;98882.03;109213;1253;66974;-63
2023/10/28 06:13:08;;;;;;;6.50;3.30;;;;;;;9.26;100.00;98882.67;106622;1253;69187;-63
2023/10/28 06:15:37;;;;;;;3.80;3.20;;;;;;;9.28;100.00;98884.13;107000;1252;71450;-62
2023/10/28 06:18:05;;;;;;;4.90;2.80;;;;;;;9.30;100.00;98887.35;106483;1252;81580;-62
2023/10/28 06:20:34;;;;;;;7.60;3.20;;;;;;;9.31;100.00;98889.34;105594;1257;71645;-62
2023/10/28 06:23:06;;;;;;;4.50;2.80;;;;;;;9.31;100.00;98891.26;105625;1256;69069;-62
2023/10/28 06:25:37;;;;;;;4.70;3.00;;;;;;;9.32;100.00;98895.20;105599;1256;69198;-62
2023/10/28 06:28:05;;;;;;;5.10;2.40;;;;;;;9.34;100.00;98893.56;105860;1255;73956;-62
2023/10/28 06:30:34;;;;;;;4.00;2.40;;;;;;;9.36;100.00;98897.27;105733;1255;82655;-64
2023/10/28 06:33:02;;;;;;;3.80;2.50;;;;;;;9.37;100.00;98898.27;105698;1255;72099;-64
2023/10/28 06:35:31;;;;;;;4.50;2.30;;;;;;;9.38;100.00;98897.89;105682;1253;69126;-64
2023/10/28 06:37:59;;;;;;;3.20;2.20;;;;;;;9.40;100.00;98900.89;105602;1256;69150;-64
2023/10/28 06:40:28;;;;;;;4.10;2.00;;;;;;;9.42;100.00;98906.16;105579;1258;72861;-64
2023/10/28 06:42:57;;;;;;;4.50;2.10;;;;;;;9.46;100.00;98907.90;105713;1257;81704;-64
2023/10/28 06:45:25;;;;;;;4.50;1.90;;;;;;;9.48;100.00;98907.92;105465;1253;73039;-64
2023/10/28 06:47:53;;;;;;;3.80;1.70;;;;;;;9.50;100.00;98914.98;105592;1253;69087;-61
2023/10/28 06:50:21;;;;;;;4.20;1.40;;;;;;;9.51;100.00;98916.47;105571;1256;69087;-61
2023/10/28 06:52:50;;;;;;;3.10;1.50;;;;;;;9.52;100.00;98920.11;105590;1253;73322;-61
2023/10/28 06:55:18;;;;;;;4.00;1.50;;;;;;;9.50;100.00;98929.25;105517;1257;81547;-61
2023/10/28 06:57:47;;;;;;;6.20;1.60;;;;;;;9.47;100.00;98929.77;105566;1253;71734;-61
2023/10/28 07:00:16;;;;;;;3.40;1.20;;;;;;;9.45;100.00;98927.33;105532;1253;69173;-61
2023/10/28 07:02:44;;;;;;;2.30;1.20;;;;;;;9.42;100.00;98933.41;105583;1252;69177;-59
2023/10/28 07:05:14;;;;;;;2.60;1.50;;;;;;;9.40;100.00;98931.61;105609;1256;72573;-59
2023/10/28 07:07:43;;;;;;;4.40;1.40;;;;;;;9.40;100.00;98931.23;105809;1256;83513;-62
2023/10/28 07:10:15;;;;;;;1.80;1.10;;;;;;;9.42;100.00;98937.59;105505;1253;73692;-60
2023/10/28 07:12:43;;;;;;;4.90;1.60;;;;;;;9.43;100.00;98940.13;105551;1255;69154;-59
2023/10/28 07:15:12;;;;;;;4.60;2.30;;;;;;;9.45;100.00;98941.06;105679;1253;69462;-58
2023/10/28 07:17:40;;;;;;;5.90;1.50;;;;;;;9.48;100.00;98943.19;105490;1253;72864;-59
2023/10/28 07:20:08;;;;;;;4.00;1.50;;;;;;;9.49;100.00;98946.76;105463;1255;82778;-59
2023/10/28 07:22:37;;;;;;;2.70;1.30;;;;;;;9.51;100.00;98952.23;105541;1253;71612;-59
2023/10/28 07:25:06;;;;;;;4.20;1.10;;;;;;;9.52;100.00;98951.96;105523;1255;69163;-59
2023/10/28 07:27:34;;;;;;;5.40;1.40;;;;;;;9.54;100.00;98956.23;105551;1255;69177;-59
2023/10/28 07:30:03;;;;;;;4.00;1.50;;;;;;;9.55;100.00;98960.34;105572;1253;72851;-58
2023/10/28 07:32:31;;;;;;;4.10;1.40;;;;;;;9.56;100.00;98957.16;105550;1253;80242;-59
2023/10/28 07:35:00;;;;;;;4.70;1.60;;;;;;;9.59;100.00;98959.83;105494;1253;72886;-59
2023/10/28 07:37:28;;;;;;;6.30;2.20;;;;;;;9.62;100.00;98966.42;105528;1253;69077;-58
2023/10/28 07:39:59;;;;;;;4.00;1.60;;;;;;;9.65;100.00;98962.95;105576;1255;69237;-59
2023/10/28 07:42:27;;;;;;;3.20;1.50;;;;;;;9.71;100.00;98966.31;105543;1256;74049;-58
2023/10/28 07:44:55;;;;;;;5.40;1.60;;;;;;;9.76;100.00;98970.02;105531;1255;81767;-61
2023/10/28 07:47:25;;;;;;;4.00;1.60;;;;;;;9.84;100.00;98977.23;105559;1253;71680;-59
2023/10/28 07:49:53;;;;;;;4.40;1.40;;;;;;;9.90;100.00;98981.96;105616;1253;69048;-59
2023/10/28 07:52:22;;;;;;;2.70;1.40;;;;;;;9.96;100.00;98983.70;105507;1252;69202;-59
2023/10/28 07:54:50;;;;;;;3.10;1.30;;;;;;;10.04;100.00;98982.73;105544;1253;72022;-59
2023/10/28 07:57:18;;;;;;;3.10;0.90;;;;;;;10.13;100.00;98989.70;105539;1256;81117;-59
2023/10/28 07:59:46;;;;;;;3.40;1.20;;;;;;;10.21;100.00;98991.01;105478;1253;70687;-59
2023/10/28 08:02:15;;;;;;;3.10;1.20;;;;;;;10.28;100.00;98996.38;105566;1253;69193;-60
2023/10/28 08:04:44;;;;;;;2.50;1.10;;;;;;;10.36;100.00;98997.34;105542;1253;69183;-61
2023/10/28 08:07:14;;;;;;;4.90;1.50;;;;;;;10.43;100.00;99001.79;105493;1255;74182;-59
2023/10/28 08:09:44;;;;;;;3.90;1.00;;;;;;;10.50;100.00;99005.39;105574;1253;80300;-59
2023/10/28 08:12:13;;;;;;;3.50;1.50;;;;;;;10.56;100.00;99009.93;105573;1255;71340;-59
2023/10/28 08:14:46;;;;;;;3.80;1.20;;;;;;;10.61;100.00;99012.09;105512;1253;69176;-60
2023/10/28 08:17:16;;;;;;;7.00;1.20;;;;;;;10.69;100.00;99020.86;105550;1253;69123;-59
2023/10/28 08:19:44;;;;;;;2.70;1.10;;;;;;;10.78;100.00;99022.60;105558;1256;73002;-60
2023/10/28 08:22:13;;;;;;;5.10;1.10;;;;;;;10.86;100.00;99024.03;105511;1255;82727;-59
2023/10/28 08:24:42;;;;;;;2.50;1.00;;;;;;;10.93;100.00;99026.59;105565;1253;71969;-59
2023/10/28 08:27:10;;;;;;;3.80;1.10;;;;;;;11.01;100.00;99027.55;105590;1255;69207;-59
2023/10/28 08:29:39;;;;;;;2.60;1.00;;;;;;;11.14;100.00;99031.63;105516;1255;69160;-59
2023/10/28 08:32:07;;;;;;;3.80;0.90;;;;;;;11.26;100.00;99032.81;105571;1253;72139;-59
2023/10/28 08:34:35;;;;;;;4.10;1.20;;;;;;;11.38;100.00;99033.80;105534;1255;82800;-59
2023/10/28 08:37:03;;;;;;;3.10;1.00;;;;;;;11.51;100.00;99039.11;105610;1253;71415;-59
2023/10/28 08:39:32;;;;;;;3.80;1.00;;;;;;;11.64;100.00;99045.50;105482;1256;69111;-59
2023/10/28 08:42:07;;;;;;;3.00;1.30;;;;;;;11.78;100.00;99044.39;105589;1256;69270;-59
2023/10/28 08:44:37;;;;;;;2.10;0.90;;;;;;;11.96;100.00;99042.74;105515;1253;72854;-59
2023/10/28 08:47:09;;;;;;;3.10;1.10;;;;;;;12.09;100.00;99044.58;105489;1258;82620;-59
2023/10/28 08:49:40;;;;;;;5.80;2.10;;;;;;;12.19;100.00;99047.91;105496;1253;71730;-59
2023/10/28 08:52:09;;;;;;;5.30;1.50;;;;;;;12.28;100.00;99049.10;105453;1253;69194;-59
2023/10/28 08:54:38;;;;;;;4.20;1.10;;;;;;;12.36;100.00;99047.56;105513;1256;69563;-59
2023/10/28 08:57:07;;;;;;;4.90;1.20;;;;;;;12.43;100.00;99051.46;105555;1259;71846;-59
2023/10/28 08:59:36;;;;;;;1.90;1.10;;;;;;;12.52;100.00;99052.98;105573;1255;82818;-59
2023/10/28 09:02:09;;;;;;;4.50;1.00;;;;;;;12.65;100.00;99048.03;105557;1253;71442;-59
2023/10/28 09:04:38;;;;;;;3.50;1.20;;;;;;;12.80;100.00;99052.64;105544;1255;69227;-59
2023/10/28 09:07:07;;;;;;;3.70;1.30;;;;;;;12.89;100.00;99050.42;105384;1253;165351;-61
2023/10/28 09:09:37;;;;;;;4.60;1.40;;;;;;;12.99;100.00;99054.52;105563;1253;71673;-62
2023/10/28 09:12:09;;;;;;;3.30;1.40;;;;;;;13.08;100.00;99052.84;105534;1253;81601;-61
2023/10/28 09:14:38;;;;;;;3.50;1.30;;;;;;;13.19;100.00;99056.81;105526;1254;73008;-61
2023/10/28 09:17:07;;;;;;;4.10;1.00;;;;;;;13.22;100.00;99061.36;105521;1254;69122;-61
2023/10/28 09:19:35;;;;;;;3.10;1.10;;;;;;;13.28;100.00;99067.32;105526;1255;69209;-61
2023/10/28 09:22:03;;;;;;;3.30;1.40;;;;;;;13.34;100.00;99066.14;105480;1253;73030;-61
2023/10/28 09:24:32;;;;;;;3.90;1.30;;;;;;;13.47;100.00;99074.19;105429;1255;81648;-61
2023/10/28 09:27:00;;;;;;;3.50;1.20;;;;;;;13.61;100.00;99075.34;105530;1252;71874;-61
2023/10/28 09:29:30;;;;;;;4.20;1.00;;;;;;;13.72;100.00;99073.65;105571;1255;69245;-61
2023/10/28 09:32:05;;;;;;;;;;;;;;;13.84;100.00;99075.80;105562;1255;69177;-61
2023/10/28 09:34:38;;;;;;;2.30;1.00;;;;;;;13.80;100.00;99078.58;105525;1255;72329;-61
2023/10/28 09:37:07;;;;;;;3.40;1.40;;;;;;;13.70;100.00;99088.22;105540;1256;81672;-61
2023/10/28 09:39:36;;;;;;;3.10;1.00;;;;;;;13.68;100.00;99093.96;105511;1252;72996;-61
2023/10/28 09:42:05;;;;;;;2.30;0.90;;;;;;;13.67;100.00;99092.28;105528;1253;69114;-61
2023/10/28 09:44:34;;;;;;;4.40;1.00;;;;;;;13.66;100.00;99097.23;105616;1253;69073;-61
2023/10/28 09:47:04;;;;;;;4.00;1.20;;;;;;;13.62;100.00;99095.08;105550;1253;74239;-61
2023/10/28 09:49:34;;;;;;;2.40;1.10;;;;;;;13.68;100.00;99096.94;105475;1255;81592;-61
2023/10/28 09:52:06;;;;;;;2.60;1.00;;;;;;;13.71;100.00;99099.42;105506;1253;71695;-61
2023/10/28 09:54:36;;;;;;;2.60;1.10;;;;;;;13.75;100.00;99092.27;105472;1256;69155;-61
2023/10/28 09:57:07;;;;;;;;;;;;;;;13.86;100.00;99093.19;105545;1256;69043;-61
2023/10/28 09:59:39;;;;;;;2.50;0.80;;;;;;;13.98;100.00;99093.26;105508;1255;72821;-61
2023/10/28 10:02:16;;;;;;;23.20;13.60;;;;;;;14.14;100.00;99093.11;105507;1255;82693;-61
2023/10/28 10:04:49;;;;;;;5.90;3.30;;;;;;;14.30;100.00;99088.80;105539;1253;72064;-61
2023/10/28 10:07:17;;;;;;;13.10;4.90;;;;;;;14.44;100.00;99088.98;105514;1253;69304;-61
2023/10/28 10:09:48;;;;;;;3.20;1.90;;;;;;;14.74;100.00;99086.97;105468;1259;69531;-61
2023/10/28 10:12:17;;;;;;;2.90;1.60;;;;;;;15.09;100.00;99091.19;105495;1253;71493;-61
2023/10/28 10:14:47;;;;;;;3.00;1.70;;;;;;;15.39;100.00;99096.98;105438;1259;82643;-61
2023/10/28 10:17:44;;;;;;;4.10;1.30;;;;;;;15.61;100.00;99105.65;105480;1255;72665;-61
2023/10/28 10:20:12;;;;;;;3.80;1.30;;;;;;;15.45;100.00;99103.16;105509;1255;69202;-61
2023/10/28 10:22:41;;;;;;;6.20;1.30;;;;;;;15.21;100.00;99105.90;105511;1255;69144;-61
2023/10/28 10:25:09;;;;;;;2.70;1.10;;;;;;;15.07;100.00;99106.50;105511;1253;72976;-61
2023/10/28 10:27:44;;;;;;;3.10;1.10;;;;;;;14.97;100.00;99107.27;105622;1253;81467;-62
2023/10/28 10:30:13;;;;;;;2.90;1.40;;;;;;;14.85;100.00;99109.20;105517;1253;73072;-61
2023/10/28 10:32:49;;;;;;;4.80;1.00;;;;;;;14.71;100.00;99116.17;105520;1255;69989;-61
2023/10/28 10:35:30;;;;;;;5.80;1.30;;;;;;;14.52;100.00;99116.54;105500;1258;69184;-61
2023/10/28 10:38:09;;;;;;;1.90;0.80;;;;;;;14.33;100.00;99117.92;105531;1255;74108;-61
2023/10/28 10:40:50;;;;;;;2.30;0.80;;;;;;;14.10;100.00;99120.09;105502;1256;81965;-61
2023/10/28 10:43:20;;;;;;;3.70;2.10;;;;;;;13.87;100.00;99120.90;105511;1253;73074;-62
2023/10/28 10:45:48;;;;;;;3.70;1.20;;;;;;;13.75;100.00;99126.64;105563;1253;70516;-61
2023/10/28 10:48:17;;;;;;;4.60;2.00;;;;;;;13.58;100.00;99132.05;105500;1257;69220;-61
2023/10/28 10:50:46;;;;;;;5.80;2.80;;;;;;;13.40;100.00;99131.70;105574;1256;74172;-61
2023/10/28 10:53:14;;;;;;;5.20;2.20;;;;;;;13.33;100.00;99130.06;105574;1255;81466;-61
2023/10/28 10:55:42;;;;;;;6.50;3.00;;;;;;;13.31;100.00;99132.52;105573;1253;71471;-61
2023/10/28 10:58:11;;;;;;;1.30;0.90;;;;;;;13.34;100.00;99132.66;105522;1255;69152;-61
2023/10/28 11:00:39;;;;;;;7.00;1.80;;;;;;;13.45;100.00;99132.41;105578;1255;69195;-61
2023/10/28 11:03:10;;;;;;;1.90;1.50;;;;;;;13.57;100.00;99130.69;105561;1252;73799;-61
2023/10/28 11:05:43;;;;;;;5.20;2.50;;;;;;;13.70;100.00;99134.42;105520;1257;81896;-61
2023/10/28 11:08:14;;;;;;;7.20;2.40;;;;;;;13.80;100.00;99134.19;105474;1253;71418;-61
2023/10/28 11:10:45;;;;;;;10.70;3.90;;;;;;;13.87;100.00;99132.83;105466;1253;69240;-61
2023/10/28 11:13:13;;;;;;;10.00;5.10;;;;;;;13.91;100.00;99135.71;105515;1256;69185;-61
2023/10/28 11:15:41;;;;;;;19.80;13.20;;;;;;;13.89;99.98;99132.54;105475;1253;72914;-61
2023/10/28 11:18:09;;;;;;;4.60;2.00;;;;;;;13.90;100.00;99135.40;105516;1255;81572;-61
2023/10/28 11:20:39;;;;;;;5.40;2.80;;;;;;;13.93;99.97;99140.66;105452;1253;73044;-61
2023/10/28 11:23:07;;;;;;;2.60;1.50;;;;;;;13.96;99.96;99143.42;105532;1255;69080;-61
2023/10/28 11:25:36;;;;;;;2.70;1.20;;;;;;;14.00;100.00;99144.36;105498;1256;69511;-61
2023/10/28 11:28:09;;;;;;;3.00;0.90;;;;;;;14.07;100.00;99144.02;105531;1256;73305;-61